首页
METAR-TAF:

METAR-TAF

机场 :

贝伦, 帕拉, 巴西

纬度: 01-23S, 经度: 048-29W, 海拔: 16米

当前天气观测

该预报发布于25分钟前的04:00 UTC
风速3节,风向东转东南
温度 25°C
湿度 94%
气压 1010 hPa
能見度: 8000

METAR: SBBE 260400Z 12003KT 8000 NSC 25/24 Q1010

时间: 01:25 (04:25 UTC)

预报

该预报发布于7小时和25分钟前的21:00 UTC
预报有效从26日的 00点(UTC)到 26日的 24点(UTC)
风速5节,风向东转东北
能見度: 8000
散云层高于1500英尺
成为
从 26日的 06点(UTC)到 26日的 08点(UTC)
风速5节,风向
成为
从 26日的 09点(UTC)到 26日的 12点(UTC)
风速10节,风向
多云层高于1500英尺
成为
从 26日的 15点(UTC)到 26日的 17点(UTC)
多云层高于2000英尺
少量云层高于3000英尺, 塔状积云.
几率 40%
从 26日的 19点(UTC)到 26日的 23点(UTC)
能見度: 7000
多云层高于2000英尺
少量云层高于2700英尺, 积雨云.
雷暴, 雨

TAF: SBBE 252100Z 2600/2624 06005KT 8000 SCT015 TN23/2610Z TX30/2616Z BECMG 2606/2608 09005KT BECMG 2609/2612 09010KT BKN015 BECMG 2615/2617 BKN020 FEW030TCU PROB40 2619/2623 7000 TSRA BKN020 FEW027CB RMK PHC

超过4000个机场的气象观测和天气预报(METAR&TAF报告)。

可查询的气象台以黄色和红色小点在地图上表示。

将鼠标移到小点上方,可查看气象台名称。

然后点击查看天气观测和预报。

如需切换地图:点击带黑十字的绿色按钮放大地图;点击带横线的绿色按钮缩小地图;或者点击绿色箭头查看邻近地区的地图。


METAR-TAF: